Time;durP1;ratioP1;P1;durP2;ratioP2;P2;SDS_P1;SDS_P2;PMS_P1;PMS_P2;Temp;Humidity;BMP_temperature;BMP_pressure;BME280_temperature;BME280_humidity;BME280_pressure;Samples;Min_cycle;Max_cycle;Signal;HPM_P1;HPM_P2
2023/09/05 00:00:10;;;;;;;5.57;3.17;;;18.50;72.30;;;;;;5032261;28;20440;-63
2023/09/05 00:02:38;;;;;;;4.55;2.90;;;18.50;72.30;;;;;;5034586;28;20037;-63
2023/09/05 00:05:05;;;;;;;6.30;3.17;;;18.50;72.50;;;;;;5032583;28;20117;-63
2023/09/05 00:07:31;;;;;;;4.28;2.70;;;18.50;72.50;;;;;;5032968;28;20018;-63
2023/09/05 00:09:58;;;;;;;4.82;2.97;;;18.50;72.70;;;;;;5033000;28;20450;-64
2023/09/05 00:12:27;;;;;;;8.15;3.33;;;18.40;73.00;;;;;;5033566;28;20029;-63
2023/09/05 00:14:53;;;;;;;7.47;3.22;;;18.40;73.30;;;;;;5033412;28;20068;-64
2023/09/05 00:17:18;;;;;;;5.18;3.10;;;18.40;73.20;;;;;;5032745;28;20384;-63
2023/09/05 00:19:44;;;;;;;4.72;2.95;;;18.40;73.30;;;;;;5032635;28;20034;-64
2023/09/05 00:22:11;;;;;;;3.28;2.70;;;18.40;73.40;;;;;;5032179;28;20030;-63
2023/09/05 00:24:38;;;;;;;7.80;3.40;;;18.30;73.50;;;;;;5032849;28;20036;-64
2023/09/05 00:27:07;;;;;;;6.05;2.83;;;18.30;73.40;;;;;;5032449;28;20025;-63
2023/09/05 00:29:33;;;;;;;5.38;3.33;;;18.30;73.70;;;;;;5032750;28;20029;-64
2023/09/05 00:31:59;;;;;;;8.25;3.25;;;18.30;73.80;;;;;;5032224;28;20462;-63
2023/09/05 00:34:29;;;;;;;4.97;3.20;;;18.30;74.50;;;;;;5032456;28;20049;-63
2023/09/05 00:36:56;;;;;;;6.90;3.20;;;18.20;74.30;;;;;;5031873;28;20033;-64
2023/09/05 00:39:21;;;;;;;7.78;3.17;;;18.20;74.30;;;;;;5032180;28;20080;-64
2023/09/05 00:41:47;;;;;;;5.25;3.10;;;18.20;74.60;;;;;;5032428;28;20057;-62
2023/09/05 00:44:14;;;;;;;5.05;3.20;;;18.20;74.70;;;;;;5031949;28;20466;-64
2023/09/05 00:46:45;;;;;;;6.65;3.38;;;18.20;75.10;;;;;;5032561;28;20056;-64
2023/09/05 00:49:12;;;;;;;4.97;3.10;;;18.10;75.50;;;;;;5032472;28;20022;-63
2023/09/05 00:51:39;;;;;;;5.65;3.13;;;18.10;76.00;;;;;;5047484;28;20053;-63
2023/09/05 00:54:07;;;;;;;5.30;2.83;;;18.10;76.70;;;;;;5051854;28;20068;-63
2023/09/05 00:56:35;;;;;;;5.63;3.00;;;17.90;77.70;;;;;;5051944;28;20044;-63
2023/09/05 00:59:01;;;;;;;4.85;3.30;;;17.80;78.80;;;;;;5051850;28;20040;-63
2023/09/05 01:01:26;;;;;;;6.70;3.53;;;17.80;78.90;;;;;;5052106;28;20029;-64
2023/09/05 01:03:55;;;;;;;6.50;3.30;;;17.70;79.60;;;;;;5051698;28;20032;-63
2023/09/05 01:06:48;;;;;;;4.15;2.88;;;17.70;79.90;;;;;;5034315;28;20033;-63
2023/09/05 01:09:22;;;;;;;6.45;2.90;;;17.60;80.00;;;;;;5051751;28;20031;-64
2023/09/05 01:11:48;;;;;;;5.72;3.22;;;17.50;80.80;;;;;;5051809;28;20523;-64
2023/09/05 01:14:14;;;;;;;6.07;2.83;;;17.40;81.30;;;;;;5052814;28;20033;-64
2023/09/05 01:16:43;;;;;;;4.18;2.90;;;17.20;82.70;;;;;;5055624;28;20029;-64
2023/09/05 01:19:12;;;;;;;4.95;3.10;;;17.20;83.30;;;;;;5055324;28;20033;-64
2023/09/05 01:21:45;;;;;;;4.18;2.58;;;17.20;83.20;;;;;;5055821;28;20079;-64
2023/09/05 01:24:20;;;;;;;4.05;2.50;;;17.20;83.90;;;;;;5055452;28;20031;-64
2023/09/05 01:26:46;;;;;;;5.57;3.10;;;17.20;83.60;;;;;;5055811;28;20038;-64
2023/09/05 01:29:15;;;;;;;4.22;2.53;;;17.10;84.00;;;;;;5055360;28;20040;-64
2023/09/05 01:31:42;;;;;;;4.55;2.97;;;17.00;85.20;;;;;;5055691;28;20135;-64
2023/09/05 01:34:07;;;;;;;5.20;2.83;;;16.90;85.40;;;;;;5055210;28;20139;-64
2023/09/05 01:36:33;;;;;;;5.18;3.38;;;17.00;85.70;;;;;;5052048;28;20025;-64
2023/09/05 01:38:59;;;;;;;5.15;3.03;;;16.90;86.30;;;;;;5055101;28;20048;-64
2023/09/05 01:41:24;;;;;;;4.95;3.40;;;16.90;86.80;;;;;;5055190;28;20355;-64
2023/09/05 01:43:50;;;;;;;5.38;3.40;;;16.80;87.30;;;;;;5055327;28;20033;-64
2023/09/05 01:46:15;;;;;;;4.97;3.05;;;16.70;87.60;;;;;;5054675;28;20037;-64
2023/09/05 01:48:41;;;;;;;4.97;3.10;;;16.70;88.10;;;;;;5055048;28;20025;-64
2023/09/05 01:51:07;;;;;;;4.70;3.10;;;16.70;88.20;;;;;;5054877;28;20025;-64
2023/09/05 01:53:33;;;;;;;4.00;3.00;;;16.70;88.00;;;;;;5034015;28;20025;-64
2023/09/05 01:55:59;;;;;;;5.63;3.08;;;16.80;88.00;;;;;;5054815;28;20045;-64
2023/09/05 01:58:24;;;;;;;5.80;3.55;;;16.80;87.90;;;;;;5055230;28;20144;-65
2023/09/05 02:00:50;;;;;;;7.85;3.13;;;16.80;88.10;;;;;;5054808;28;20021;-64
2023/09/05 02:03:16;;;;;;;4.43;3.28;;;16.70;88.30;;;;;;5054743;28;20044;-65
2023/09/05 02:05:41;;;;;;;5.75;3.03;;;16.70;88.80;;;;;;5055187;28;20033;-65
2023/09/05 02:08:07;;;;;;;4.68;3.13;;;16.60;89.60;;;;;;5054735;28;20381;-65
2023/09/05 02:10:32;;;;;;;4.30;3.00;;;16.60;89.50;;;;;;5055011;28;20110;-65
2023/09/05 02:12:58;;;;;;;5.28;3.40;;;16.60;89.50;;;;;;5054538;28;20029;-64
2023/09/05 02:15:24;;;;;;;4.65;3.22;;;16.70;90.00;;;;;;5054903;28;20492;-64
2023/09/05 02:17:50;;;;;;;5.18;2.83;;;16.70;89.80;;;;;;5036878;28;20026;-64
2023/09/05 02:20:15;;;;;;;4.70;3.50;;;16.60;90.10;;;;;;5054250;28;20215;-64
2023/09/05 02:22:43;;;;;;;8.02;3.83;;;16.50;90.60;;;;;;5054619;28;20029;-64
2023/09/05 02:25:11;;;;;;;6.10;3.33;;;16.50;90.80;;;;;;5053466;28;20037;-63
2023/09/05 02:27:38;;;;;;;6.65;3.30;;;16.50;90.70;;;;;;5054180;28;20025;-64
2023/09/05 02:30:06;;;;;;;5.38;3.38;;;16.50;90.70;;;;;;5054239;28;20104;-65
2023/09/05 02:32:32;;;;;;;4.38;3.22;;;16.50;90.90;;;;;;5036908;28;20139;-64
2023/09/05 02:34:58;;;;;;;6.63;3.63;;;16.60;91.00;;;;;;5054223;28;20044;-64
2023/09/05 02:37:24;;;;;;;5.57;3.30;;;16.50;90.90;;;;;;5036625;28;20373;-63
2023/09/05 02:39:50;;;;;;;6.10;3.72;;;16.60;90.80;;;;;;5054652;28;20025;-63
2023/09/05 02:42:15;;;;;;;6.00;3.70;;;16.60;90.90;;;;;;5053846;28;20580;-64
2023/09/05 02:44:41;;;;;;;5.32;3.60;;;16.60;90.90;;;;;;5054221;28;20037;-64
2023/09/05 02:47:06;;;;;;;5.75;3.65;;;16.60;90.80;;;;;;5053892;28;20079;-64
2023/09/05 02:49:32;;;;;;;6.63;3.33;;;16.60;90.80;;;;;;5054217;28;20025;-64
2023/09/05 02:51:58;;;;;;;5.05;3.80;;;16.50;90.70;;;;;;5038903;28;20163;-64
2023/09/05 02:54:23;;;;;;;6.28;3.30;;;16.50;91.10;;;;;;5033851;28;20040;-65
2023/09/05 02:56:50;;;;;;;3.65;3.28;;;16.40;91.30;;;;;;5034323;28;20045;-64
2023/09/05 02:59:16;;;;;;;9.65;3.35;;;16.40;91.50;;;;;;5033675;28;20033;-64
2023/09/05 03:01:41;;;;;;;4.82;3.60;;;16.40;91.40;;;;;;5033757;28;20028;-64
2023/09/05 03:04:07;;;;;;;8.65;3.88;;;16.40;91.50;;;;;;5033505;28;20029;-64
2023/09/05 03:06:32;;;;;;;6.20;3.28;;;16.30;91.60;;;;;;5033918;28;20112;-64
2023/09/05 03:08:58;;;;;;;4.75;3.40;;;16.30;91.70;;;;;;5033617;28;20530;-64
2023/09/05 03:11:24;;;;;;;5.38;3.78;;;16.30;92.00;;;;;;5033416;28;20485;-64
2023/09/05 03:13:50;;;;;;;5.97;3.22;;;16.30;91.90;;;;;;5033863;28;20030;-64
2023/09/05 03:16:17;;;;;;;6.93;3.60;;;16.20;92.00;;;;;;5033282;28;20029;-64
2023/09/05 03:18:43;;;;;;;5.68;3.72;;;16.30;92.00;;;;;;5033751;28;20029;-64
2023/09/05 03:21:08;;;;;;;4.25;3.10;;;16.20;92.00;;;;;;5033376;28;20088;-64
2023/09/05 03:23:35;;;;;;;6.03;3.60;;;16.20;92.20;;;;;;5033513;28;20061;-64
2023/09/05 03:26:01;;;;;;;4.55;3.20;;;16.10;92.40;;;;;;5033694;28;20033;-64
2023/09/05 03:28:39;;;;;;;6.63;3.45;;;16.10;92.90;;;;;;5033220;28;20017;-64
2023/09/05 03:31:05;;;;;;;4.95;3.28;;;16.10;92.90;;;;;;5033140;28;20029;-65
2023/09/05 03:33:31;;;;;;;4.78;3.35;;;16.00;93.10;;;;;;5033109;28;20041;-64
2023/09/05 03:35:56;;;;;;;3.58;2.90;;;16.10;93.00;;;;;;5033385;28;20025;-64
2023/09/05 03:38:22;;;;;;;4.75;3.30;;;16.10;93.00;;;;;;5032767;28;20026;-64
2023/09/05 03:40:48;;;;;;;7.03;3.95;;;16.00;93.30;;;;;;5033253;28;20029;-64
2023/09/05 03:43:13;;;;;;;5.75;3.53;;;15.90;93.40;;;;;;5032541;28;20029;-64
2023/09/05 03:45:39;;;;;;;5.45;3.75;;;15.90;93.40;;;;;;5032941;28;20036;-64
2023/09/05 03:48:05;;;;;;;6.72;3.92;;;15.80;93.60;;;;;;5040440;28;20032;-64
2023/09/05 03:50:31;;;;;;;5.05;3.50;;;15.80;93.90;;;;;;5038533;28;20077;-65
2023/09/05 03:52:57;;;;;;;7.03;3.75;;;15.70;94.30;;;;;;5035139;28;20042;-64
2023/09/05 03:55:23;;;;;;;5.00;3.25;;;15.70;94.60;;;;;;5032097;28;20045;-64
2023/09/05 03:57:48;;;;;;;4.80;3.50;;;15.70;94.40;;;;;;5032998;28;20116;-64
2023/09/05 04:00:14;;;;;;;4.72;3.75;;;15.70;94.60;;;;;;5032588;28;20030;-64
2023/09/05 04:02:40;;;;;;;6.00;3.53;;;15.70;94.70;;;;;;5032658;28;20040;-64
2023/09/05 04:05:07;;;;;;;8.27;3.72;;;15.70;94.60;;;;;;5032968;28;20036;-64
2023/09/05 04:07:34;;;;;;;8.52;3.55;;;15.60;94.70;;;;;;5032823;28;20025;-64
2023/09/05 04:10:00;;;;;;;7.10;3.60;;;15.60;95.10;;;;;;5033235;28;20090;-64
2023/09/05 04:12:25;;;;;;;5.25;3.78;;;15.60;95.30;;;;;;5032545;28;20021;-64
2023/09/05 04:14:51;;;;;;;6.78;3.30;;;15.60;95.30;;;;;;5032698;28;20459;-64
2023/09/05 04:17:17;;;;;;;5.18;4.00;;;15.60;95.40;;;;;;5037491;28;20033;-64
2023/09/05 04:19:42;;;;;;;4.10;3.33;;;15.60;95.30;;;;;;5032385;28;20026;-64
2023/09/05 04:22:08;;;;;;;6.25;4.13;;;15.60;95.30;;;;;;5032561;28;20030;-67
2023/09/05 04:24:33;;;;;;;9.90;4.38;;;15.60;95.30;;;;;;5032442;28;20037;-64
2023/09/05 04:26:59;;;;;;;5.40;3.85;;;15.60;95.20;;;;;;5032541;28;20033;-64
2023/09/05 04:29:25;;;;;;;5.80;4.10;;;15.60;95.30;;;;;;5032409;28;20030;-64
2023/09/05 04:31:51;;;;;;;7.53;3.65;;;15.60;95.30;;;;;;5032729;28;20040;-64
2023/09/05 04:34:17;;;;;;;6.13;4.10;;;15.60;95.50;;;;;;5031844;28;20437;-63
2023/09/05 04:36:42;;;;;;;6.35;4.00;;;15.60;95.70;;;;;;5032335;28;20033;-64
2023/09/05 04:39:08;;;;;;;8.55;3.83;;;15.60;95.70;;;;;;5032715;28;20029;-64
2023/09/05 04:41:33;;;;;;;7.45;4.38;;;15.60;95.80;;;;;;5031986;28;20026;-64
2023/09/05 04:43:59;;;;;;;5.60;3.85;;;15.60;95.70;;;;;;5032223;28;20481;-64
2023/09/05 04:46:25;;;;;;;9.23;3.63;;;15.70;95.70;;;;;;5035508;28;20099;-64
2023/09/05 04:48:50;;;;;;;9.48;3.72;;;15.70;95.60;;;;;;5052819;28;20063;-64
2023/09/05 04:51:16;;;;;;;6.43;4.28;;;15.80;95.60;;;;;;5056139;28;20035;-64
2023/09/05 04:53:42;;;;;;;8.43;4.22;;;15.80;95.40;;;;;;5056394;28;20113;-64
2023/09/05 04:56:07;;;;;;;6.85;4.18;;;15.80;95.40;;;;;;5056065;28;20052;-64
2023/09/05 04:58:33;;;;;;;7.47;4.35;;;15.80;95.40;;;;;;5056091;28;20107;-64
2023/09/05 05:01:02;;;;;;;8.00;3.90;;;15.70;95.50;;;;;;5055974;28;20036;-63
2023/09/05 05:03:37;;;;;;;6.18;4.20;;;15.70;95.80;;;;;;5055624;28;20453;-63
2023/09/05 05:06:03;;;;;;;6.38;4.47;;;15.80;95.50;;;;;;5056353;28;20068;-63
2023/09/05 05:08:28;;;;;;;5.53;3.72;;;15.90;95.50;;;;;;5055662;28;20052;-63
2023/09/05 05:10:54;;;;;;;6.45;4.30;;;15.90;95.30;;;;;;5056234;28;20036;-65
2023/09/05 05:13:20;;;;;;;8.35;4.30;;;16.00;95.00;;;;;;5055668;28;20036;-63
2023/09/05 05:15:47;;;;;;;7.55;4.78;;;15.90;95.30;;;;;;5055915;28;20373;-64
2023/09/05 05:18:13;;;;;;;7.50;4.20;;;15.90;95.10;;;;;;5055905;28;20025;-64
2023/09/05 05:20:39;;;;;;;5.13;4.20;;;16.00;95.20;;;;;;5056007;28;20025;-65
2023/09/05 05:23:06;;;;;;;7.90;4.00;;;16.00;95.10;;;;;;5055805;28;20086;-63
2023/09/05 05:25:32;;;;;;;7.68;4.43;;;16.00;95.10;;;;;;5055410;28;20033;-64
2023/09/05 05:27:58;;;;;;;10.27;4.85;;;16.00;95.00;;;;;;5055501;28;20017;-66
2023/09/05 05:30:24;;;;;;;10.27;4.32;;;16.10;95.00;;;;;;5035626;28;20068;-64
2023/09/05 05:32:50;;;;;;;7.20;4.43;;;16.10;94.80;;;;;;5035722;28;20474;-64
2023/09/05 05:35:15;;;;;;;13.25;4.65;;;16.10;94.80;;;;;;5034840;28;20033;-65
2023/09/05 05:37:41;;;;;;;8.13;4.43;;;16.20;94.80;;;;;;5035686;28;20045;-64
2023/09/05 05:40:07;;;;;;;8.75;4.10;;;16.20;94.80;;;;;;5035537;28;20040;-64
2023/09/05 05:42:33;;;;;;;18.05;4.68;;;16.30;94.50;;;;;;5034879;28;20025;-64
2023/09/05 05:44:59;;;;;;;9.05;4.43;;;16.30;94.40;;;;;;5035320;28;20087;-64
2023/09/05 05:47:24;;;;;;;7.72;4.57;;;16.30;94.50;;;;;;5034710;28;20025;-64
2023/09/05 05:49:50;;;;;;;9.55;4.80;;;16.40;94.30;;;;;;5035572;28;20521;-64
2023/09/05 05:52:17;;;;;;;12.13;4.65;;;16.40;94.00;;;;;;5037914;28;20025;-63
2023/09/05 05:54:42;;;;;;;14.27;5.82;;;16.40;94.20;;;;;;5037759;28;20029;-63
2023/09/05 05:57:08;;;;;;;12.55;5.50;;;16.40;93.90;;;;;;5035062;28;20481;-64
2023/09/05 05:59:34;;;;;;;9.25;4.80;;;16.40;94.10;;;;;;5034477;28;20045;-64
2023/09/05 06:01:59;;;;;;;9.32;5.05;;;16.40;94.00;;;;;;5035050;28;20025;-64
2023/09/05 06:04:25;;;;;;;9.95;4.93;;;16.50;94.20;;;;;;5034700;28;20044;-63
2023/09/05 06:06:51;;;;;;;7.50;4.10;;;16.60;94.00;;;;;;5035352;28;20083;-63
2023/09/05 06:09:20;;;;;;;11.23;4.45;;;16.70;94.10;;;;;;5035083;28;20044;-64
2023/09/05 06:11:46;;;;;;;8.70;5.35;;;16.80;94.10;;;;;;5034985;28;20033;-64
2023/09/05 06:14:15;;;;;;;9.02;4.93;;;16.90;93.80;;;;;;5034681;28;20040;-64
2023/09/05 06:16:41;;;;;;;6.82;5.25;;;17.00;93.40;;;;;;5034633;28;20040;-64
2023/09/05 06:19:08;;;;;;;9.40;5.50;;;17.10;93.40;;;;;;5034946;28;20022;-64
2023/09/05 06:21:34;;;;;;;9.35;5.25;;;17.30;93.40;;;;;;5034266;28;20061;-64
2023/09/05 06:24:00;;;;;;;11.45;5.28;;;17.40;93.20;;;;;;5034325;28;20091;-64
2023/09/05 06:26:25;;;;;;;11.10;5.10;;;17.60;92.70;;;;;;5034009;28;20034;-63
2023/09/05 06:28:51;;;;;;;6.97;4.32;;;17.80;92.30;;;;;;5034502;28;20064;-64
2023/09/05 06:31:17;;;;;;;10.10;4.53;;;18.10;91.50;;;;;;5034743;28;20499;-64
2023/09/05 06:33:42;;;;;;;10.57;4.45;;;18.30;90.60;;;;;;5034103;28;20497;-63
2023/09/05 06:36:11;;;;;;;8.60;4.40;;;18.60;89.90;;;;;;5049521;28;20139;-63
2023/09/05 06:38:36;;;;;;;8.43;4.60;;;19.00;87.50;;;;;;5053993;28;20029;-64
2023/09/05 06:41:10;;;;;;;10.77;4.60;;;19.30;84.40;;;;;;5054349;28;20029;-63
2023/09/05 06:43:36;;;;;;;6.45;4.28;;;19.70;82.70;;;;;;5053876;28;20033;-64
2023/09/05 06:46:03;;;;;;;7.20;4.07;;;19.90;80.10;;;;;;5052422;28;20078;-63
2023/09/05 06:48:29;;;;;;;10.18;4.20;;;20.30;78.00;;;;;;5053784;28;20029;-65
2023/09/05 06:50:59;;;;;;;13.18;4.55;;;20.70;76.50;;;;;;5054301;28;20029;-64
2023/09/05 06:53:29;;;;;;;8.55;4.53;;;21.10;74.10;;;;;;5053699;28;20029;-63
2023/09/05 06:55:54;;;;;;;6.32;3.85;;;21.40;72.70;;;;;;5054385;28;20053;-63
2023/09/05 06:58:24;;;;;;;6.95;4.35;;;21.60;71.20;;;;;;5047182;28;20021;-63
2023/09/05 07:00:54;;;;;;;6.85;4.18;;;22.00;69.70;;;;;;5041353;28;20037;-63
2023/09/05 07:03:23;;;;;;;6.15;4.25;;;22.50;68.20;;;;;;5043362;28;20039;-63
2023/09/05 07:05:49;;;;;;;9.77;3.95;;;22.90;67.10;;;;;;5041149;28;20065;-63
2023/09/05 07:08:15;;;;;;;11.18;3.85;;;23.30;65.90;;;;;;5051494;28;20107;-63
2023/09/05 07:10:41;;;;;;;7.40;3.60;;;23.80;63.10;;;;;;5053207;28;20104;-63
2023/09/05 07:13:07;;;;;;;12.82;3.78;;;24.50;61.00;;;;;;5052962;28;20047;-63
2023/09/05 07:15:32;;;;;;;9.85;3.80;;;25.70;58.80;;;;;;5053105;28;20105;-64
2023/09/05 07:17:58;;;;;;;6.13;3.75;;;26.90;55.60;;;;;;5053650;28;20029;-64
2023/09/05 07:20:24;;;;;;;8.70;3.30;;;27.70;53.00;;;;;;5046945;28;20020;-63
2023/09/05 07:22:50;;;;;;;7.32;3.50;;;28.40;50.90;;;;;;5051885;28;20020;-64
2023/09/05 07:25:15;;;;;;;10.70;4.10;;;28.90;49.50;;;;;;5052110;28;20025;-64
2023/09/05 07:27:41;;;;;;;12.40;4.13;;;29.40;48.30;;;;;;5042284;28;20530;-63
2023/09/05 07:30:07;;;;;;;11.15;4.22;;;30.10;46.20;;;;;;5043795;28;20022;-63
2023/09/05 07:32:33;;;;;;;5.55;2.90;;;30.40;45.60;;;;;;5037714;28;20029;-64
2023/09/05 07:34:59;;;;;;;8.07;3.90;;;30.90;44.50;;;;;;5032889;28;20083;-64
2023/09/05 07:37:25;;;;;;;10.85;3.60;;;31.50;43.80;;;;;;5033270;28;20029;-64
2023/09/05 07:39:52;;;;;;;10.82;3.38;;;32.10;41.80;;;;;;5033175;28;20477;-64
2023/09/05 07:42:18;;;;;;;7.07;3.40;;;32.60;41.50;;;;;;5032965;28;20040;-63
2023/09/05 07:44:44;;;;;;;10.48;3.65;;;33.10;40.10;;;;;;5032680;28;20038;-64
2023/09/05 07:47:09;;;;;;;5.40;3.03;;;33.20;39.70;;;;;;5037598;28;20365;-64
2023/09/05 07:49:36;;;;;;;7.25;3.45;;;33.60;39.80;;;;;;5032341;28;20489;-64
2023/09/05 07:52:02;;;;;;;7.13;3.60;;;34.10;38.50;;;;;;5032764;28;20120;-63
2023/09/05 07:54:27;;;;;;;3.63;3.28;;;34.50;37.50;;;;;;5032366;28;20065;-64
2023/09/05 07:56:53;;;;;;;7.50;3.35;;;35.00;36.90;;;;;;5032656;28;20049;-63
2023/09/05 07:59:19;;;;;;;5.45;3.22;;;35.30;36.30;;;;;;5015334;28;20036;-63
2023/09/05 08:01:45;;;;;;;6.20;3.30;;;35.60;35.90;;;;;;5032457;28;20056;-63
2023/09/05 08:04:10;;;;;;;6.63;3.25;;;35.80;35.30;;;;;;5032765;28;20060;-63
2023/09/05 08:06:36;;;;;;;5.65;3.40;;;36.00;34.90;;;;;;5032090;28;20029;-64
2023/09/05 08:09:01;;;;;;;9.05;3.78;;;36.00;34.50;;;;;;5032497;28;20068;-63
2023/09/05 08:11:27;;;;;;;4.43;3.50;;;36.10;34.20;;;;;;5032620;28;20029;-64
2023/09/05 08:13:53;;;;;;;6.43;3.75;;;36.10;34.30;;;;;;5032264;28;20474;-64
2023/09/05 08:16:19;;;;;;;6.30;3.65;;;35.80;34.10;;;;;;5032587;28;20029;-65
2023/09/05 08:18:44;;;;;;;8.55;3.80;;;35.90;34.40;;;;;;5032171;28;20113;-65
2023/09/05 08:21:10;;;;;;;5.50;3.35;;;36.10;34.40;;;;;;5032655;28;20502;-64
2023/09/05 08:23:35;;;;;;;6.80;3.85;;;36.50;34.20;;;;;;5031276;28;20478;-63
2023/09/05 08:26:01;;;;;;;8.82;3.40;;;37.00;33.30;;;;;;5032599;28;20042;-63
2023/09/05 08:28:32;;;;;;;8.75;3.60;;;37.10;32.90;;;;;;5032329;28;20033;-63
2023/09/05 08:30:59;;;;;;;6.90;3.67;;;37.00;32.70;;;;;;5032457;28;20029;-63
2023/09/05 08:33:26;;;;;;;5.10;3.03;;;36.70;32.80;;;;;;5032469;28;20034;-63
2023/09/05 08:35:52;;;;;;;6.35;3.05;;;36.70;32.30;;;;;;5031957;28;20029;-64
2023/09/05 08:38:18;;;;;;;5.97;3.53;;;36.00;32.60;;;;;;5032456;28;20036;-64
2023/09/05 08:40:47;;;;;;;6.90;3.22;;;35.20;33.30;;;;;;5032228;28;20037;-64
2023/09/05 08:43:13;;;;;;;5.30;3.75;;;34.80;33.80;;;;;;5032110;28;20030;-63
2023/09/05 08:45:43;;;;;;;5.90;3.42;;;34.00;34.60;;;;;;5032006;28;20080;-64
2023/09/05 08:48:08;;;;;;;6.65;3.20;;;33.30;35.80;;;;;;5032454;28;20048;-64
2023/09/05 08:50:36;;;;;;;6.28;3.38;;;32.50;36.20;;;;;;5038209;28;20029;-64
2023/09/05 08:53:10;;;;;;;5.63;3.03;;;31.70;36.80;;;;;;5052152;28;20032;-65
2023/09/05 08:55:40;;;;;;;5.78;3.03;;;31.40;36.90;;;;;;5051988;28;20053;-63
2023/09/05 08:58:11;;;;;;;9.15;3.33;;;31.20;37.30;;;;;;5052165;28;20105;-63
2023/09/05 09:00:37;;;;;;;;;;;31.00;38.20;;;;;;5051991;28;20371;-64
2023/09/05 09:03:07;;;;;;;5.78;3.20;;;30.60;38.10;;;;;;5052029;28;19954;-64
2023/09/05 09:05:33;;;;;;;14.95;3.63;;;30.00;38.40;;;;;;5051547;28;20033;-65
2023/09/05 09:07:59;;;;;;;13.40;4.03;;;29.80;39.10;;;;;;5052067;28;20029;-63
2023/09/05 09:10:25;;;;;;;7.88;3.38;;;29.20;40.00;;;;;;5051689;28;20438;-64
2023/09/05 09:12:56;;;;;;;5.80;3.05;;;29.30;41.10;;;;;;5051552;28;20025;-64
2023/09/05 09:15:26;;;;;;;7.88;3.60;;;29.40;41.30;;;;;;5051957;28;20060;-64
2023/09/05 09:17:54;;;;;;;10.02;3.35;;;29.60;41.40;;;;;;5051246;28;20460;-64
2023/09/05 09:20:22;;;;;;;6.50;3.42;;;29.20;40.40;;;;;;5051974;28;20406;-64
2023/09/05 09:22:50;;;;;;;3.20;2.90;;;29.10;41.30;;;;;;5051488;28;20037;-64
2023/09/05 09:25:23;;;;;;;6.75;2.97;;;29.10;42.00;;;;;;5051955;28;20029;-64
2023/09/05 09:27:57;;;;;;;3.42;2.88;;;29.10;40.50;;;;;;5051658;28;20025;-64
2023/09/05 09:30:24;;;;;;;6.43;2.67;;;29.00;40.90;;;;;;5052045;28;20033;-64
2023/09/05 09:32:51;;;;;;;8.20;3.00;;;28.70;40.70;;;;;;5051358;28;20061;-64
2023/09/05 09:35:17;;;;;;;4.80;2.60;;;28.60;40.60;;;;;;5053241;28;20029;-65
2023/09/05 09:37:49;;;;;;;10.80;3.25;;;28.40;40.70;;;;;;5055216;28;20043;-64
2023/09/05 09:40:16;;;;;;;4.10;2.47;;;28.20;40.80;;;;;;5055484;28;20083;-63
2023/09/05 09:42:45;;;;;;;5.68;2.72;;;28.00;40.60;;;;;;5051439;28;20059;-64
2023/09/05 09:45:11;;;;;;;4.90;2.45;;;28.00;40.60;;;;;;5037260;28;20040;-63
2023/09/05 09:47:47;;;;;;;3.72;2.63;;;28.10;40.00;;;;;;5054947;28;20025;-64
2023/09/05 09:50:13;;;;;;;4.75;2.70;;;28.10;40.20;;;;;;5051844;28;20457;-64
2023/09/05 09:52:42;;;;;;;4.35;2.58;;;28.10;39.90;;;;;;5054758;28;20029;-64
2023/09/05 09:55:11;;;;;;;14.25;2.67;;;27.80;40.10;;;;;;5054911;28;20044;-64
2023/09/05 09:57:44;;;;;;;6.10;2.80;;;27.90;40.80;;;;;;5054765;28;20029;-65
2023/09/05 10:00:15;;;;;;;3.95;2.70;;;28.20;40.90;;;;;;5055003;28;20032;-64
2023/09/05 10:02:43;;;;;;;4.88;2.50;;;28.30;41.60;;;;;;5054545;28;20033;-64
2023/09/05 10:05:10;;;;;;;4.05;2.45;;;28.30;40.00;;;;;;5054565;28;20036;-64
2023/09/05 10:07:37;;;;;;;5.88;2.80;;;28.10;40.00;;;;;;5054614;28;20031;-64
2023/09/05 10:10:04;;;;;;;7.22;2.67;;;28.20;41.00;;;;;;5054682;28;20044;-64
2023/09/05 10:12:31;;;;;;;7.05;2.50;;;28.30;40.70;;;;;;5054236;28;20025;-64
2023/09/05 10:14:58;;;;;;;3.50;2.47;;;28.40;41.10;;;;;;5053784;28;20450;-64
2023/09/05 10:17:26;;;;;;;2.55;2.28;;;28.30;40.70;;;;;;5020331;28;20357;-65
2023/09/05 10:19:53;;;;;;;4.97;2.33;;;28.30;40.70;;;;;;5054081;28;20053;-65
2023/09/05 10:22:19;;;;;;;5.38;2.67;;;28.40;41.10;;;;;;5054083;28;20033;-64
2023/09/05 10:24:45;;;;;;;4.10;2.53;;;28.40;40.20;;;;;;5053875;28;20067;-65
2023/09/05 10:27:11;;;;;;;3.45;2.50;;;28.30;40.50;;;;;;5054196;28;20458;-64
2023/09/05 10:29:42;;;;;;;10.57;2.67;;;28.30;40.50;;;;;;5054785;28;20082;-64
2023/09/05 10:32:08;;;;;;;6.70;2.60;;;28.30;41.10;;;;;;5054544;28;20025;-64
2023/09/05 10:34:55;;;;;;;3.17;2.30;;;28.20;39.80;;;;;;5054405;28;20040;-64
2023/09/05 10:37:23;;;;;;;2.75;2.20;;;28.20;41.60;;;;;;5054232;28;20116;-64
2023/09/05 10:40:06;;;;;;;4.78;2.90;;;28.20;40.50;;;;;;5053782;28;20024;-65
2023/09/05 10:42:32;;;;;;;5.45;2.75;;;28.00;41.30;;;;;;5054133;28;20025;-64
2023/09/05 10:45:17;;;;;;;3.20;2.13;;;28.10;41.20;;;;;;5053742;28;20111;-64
2023/09/05 10:47:42;;;;;;;3.35;2.42;;;28.20;41.40;;;;;;5052850;28;20025;-64
2023/09/05 10:50:10;;;;;;;3.05;2.50;;;28.20;41.00;;;;;;5054278;28;20028;-64
2023/09/05 10:52:36;;;;;;;3.83;2.75;;;28.00;40.10;;;;;;5053967;28;20040;-64
2023/09/05 10:55:31;;;;;;;3.58;2.40;;;28.00;40.60;;;;;;5051101;28;20095;-64
2023/09/05 10:57:58;;;;;;;3.47;2.50;;;28.00;40.80;;;;;;5053858;28;20457;-64
2023/09/05 11:00:26;;;;;;;5.25;2.72;;;27.90;40.90;;;;;;5054092;28;20368;-64
2023/09/05 11:02:55;;;;;;;6.43;2.55;;;27.90;41.30;;;;;;5053477;28;20067;-64
2023/09/05 11:05:26;;;;;;;5.10;2.78;;;28.10;41.50;;;;;;5053772;28;20485;-64
2023/09/05 11:07:55;;;;;;;3.70;2.60;;;28.00;40.60;;;;;;5053219;28;20540;-64
2023/09/05 11:10:26;;;;;;;4.10;2.40;;;27.90;40.50;;;;;;5053704;28;20036;-64
2023/09/05 11:12:52;;;;;;;5.82;2.65;;;28.00;40.80;;;;;;5053412;28;20492;-64
2023/09/05 11:15:47;;;;;;;6.22;2.10;;;28.20;42.10;;;;;;5053407;28;20025;-65
2023/09/05 11:18:17;;;;;;;5.05;2.90;;;28.30;40.50;;;;;;5032158;28;20120;-64
2023/09/05 11:20:44;;;;;;;3.15;2.45;;;28.40;40.70;;;;;;5053638;28;20033;-64
2023/09/05 11:23:30;;;;;;;5.55;2.50;;;28.50;41.90;;;;;;5053162;28;20060;-64
2023/09/05 11:26:03;;;;;;;4.93;2.80;;;28.40;40.70;;;;;;5052753;28;20557;-64
2023/09/05 11:28:29;;;;;;;4.43;2.40;;;28.50;40.70;;;;;;5053612;28;20052;-63
2023/09/05 11:30:57;;;;;;;4.65;2.55;;;28.50;40.80;;;;;;5052780;28;20484;-64
2023/09/05 11:33:24;;;;;;;4.30;2.60;;;28.60;41.30;;;;;;5053542;28;20064;-64
2023/09/05 11:35:50;;;;;;;8.15;2.50;;;28.50;40.60;;;;;;5052927;28;20484;-64
2023/09/05 11:38:18;;;;;;;5.20;2.50;;;28.50;40.20;;;;;;5053128;28;20029;-64
2023/09/05 11:40:50;;;;;;;3.50;2.50;;;28.60;40.60;;;;;;5053360;28;20094;-67
2023/09/05 11:43:16;;;;;;;6.45;2.97;;;28.80;41.40;;;;;;5053186;28;20079;-64
2023/09/05 11:45:43;;;;;;;9.40;3.10;;;28.80;39.30;;;;;;5049593;28;20021;-64
2023/09/05 11:48:11;;;;;;;8.18;2.63;;;28.90;39.70;;;;;;5053074;28;20057;-64
2023/09/05 11:50:41;;;;;;;4.07;2.92;;;29.00;39.50;;;;;;5052963;28;20445;-64
2023/09/05 11:53:10;;;;;;;5.47;2.88;;;29.10;38.40;;;;;;5052677;28;20090;-65
2023/09/05 11:55:36;;;;;;;8.23;2.50;;;29.10;39.20;;;;;;5052290;28;20059;-64
2023/09/05 11:58:05;;;;;;;7.32;3.70;;;28.90;38.00;;;;;;5034406;28;20041;-64
2023/09/05 12:00:32;;;;;;;4.60;2.50;;;28.80;38.30;;;;;;5033008;28;20048;-64
2023/09/05 12:03:00;;;;;;;6.53;2.67;;;28.70;39.30;;;;;;5032448;28;20378;-64
2023/09/05 12:05:26;;;;;;;4.65;2.65;;;28.90;39.60;;;;;;5032916;28;20029;-63
2023/09/05 12:07:53;;;;;;;2.95;2.13;;;28.90;39.80;;;;;;5032237;28;20462;-65
2023/09/05 12:10:19;;;;;;;4.70;2.55;;;28.80;39.40;;;;;;5032326;28;20525;-65
2023/09/05 12:13:11;;;;;;;5.10;2.60;;;28.90;39.20;;;;;;5032609;28;20029;-65
2023/09/05 12:15:37;;;;;;;8.90;4.53;;;28.60;38.80;;;;;;5027971;28;20057;-64
2023/09/05 12:18:04;;;;;;;3.72;2.45;;;28.60;38.00;;;;;;5032328;28;20032;-64
2023/09/05 12:20:34;;;;;;;5.38;3.35;;;28.60;38.30;;;;;;5032613;28;20466;-64
2023/09/05 12:23:05;;;;;;;3.30;2.50;;;28.60;39.00;;;;;;5032128;28;20029;-63
2023/09/05 12:25:31;;;;;;;6.35;2.55;;;28.50;38.60;;;;;;5032854;28;20037;-64
2023/09/05 12:28:16;;;;;;;4.20;2.35;;;28.20;38.80;;;;;;5032268;28;20481;-63
2023/09/05 12:30:42;;;;;;;4.88;2.45;;;27.90;39.60;;;;;;5032746;28;20029;-63
2023/09/05 12:33:08;;;;;;;5.53;2.72;;;27.50;40.10;;;;;;5032224;28;20048;-64
2023/09/05 12:35:34;;;;;;;5.07;2.65;;;27.20;39.90;;;;;;5032565;28;20127;-64
2023/09/05 12:38:04;;;;;;;5.03;2.50;;;27.10;40.50;;;;;;5032444;28;20030;-64
2023/09/05 12:40:32;;;;;;;11.55;2.53;;;27.00;40.50;;;;;;5032477;28;20410;-64
2023/09/05 12:42:59;;;;;;;7.60;2.58;;;27.10;40.90;;;;;;5031785;28;20537;-64
2023/09/05 12:45:25;;;;;;;6.05;2.38;;;27.10;40.90;;;;;;5032077;28;20406;-65